^^
Saratoga-Weather Station Historical Data
Daily Summary for January 8, 2021 Units:  Metric    English   Both
Daily Weekly Monthly Yearly Custom
  High: Low: Average:
Temperature: 20.7 °C 13.6 °C 16.5 °C
Dew Point: 14.7 °C 11.2 °C 12.7 °C
Humidity: 90% 56% 79%
Wind Speed: 19.5km/h 0km/h 3.7km/h
Wind Gust: 29km/h - -
Wind- - WSW
Pressure: 1015.9 hPa 1006.4 hPa -
Precipitation: 2.5 mm    
Historical Graphs
 
 
Tabular Data for January 8, 2021
Time Temperature Dew Point Pressure Wind Wind Speed Wind Gust Humidity Rainfall Rate (Hourly) solar
00:04 16.4 °C 14.1 °C 1006.4 hPa West 3.2 km/h 4.8 km/h 86% 0.0 mm 0 W/m2
00:09 16.3 °C 14.1 °C 1006.4 hPa Calm   4.8 km/h 87% 0.0 mm 0 W/m2
00:14 16.3 °C 14.1 °C 1006.4 hPa NW 3.2 km/h 6.4 km/h 87% 0.0 mm 0 W/m2
00:19 16.2 °C 14 °C 1006.4 hPa WNW 4.7 km/h 8 km/h 87% 0.0 mm 0 W/m2
00:24 16.2 °C 14 °C 1006.4 hPa Calm   3.2 km/h 87% 0.0 mm 0 W/m2
00:29 16.2 °C 14 °C 1006.4 hPa NW 3.2 km/h 9.7 km/h 87% 0.0 mm 0 W/m2
00:34 16.2 °C 14 °C 1006.8 hPa West 4.7 km/h 12.9 km/h 87% 0.0 mm 0 W/m2
00:39 16.2 °C 14 °C 1006.8 hPa West 3.2 km/h 4.8 km/h 87% 0.0 mm 0 W/m2
00:44 16.2 °C 14 °C 1006.8 hPa ESE 3.2 km/h 4.8 km/h 87% 0.0 mm 0 W/m2
00:49 16.2 °C 13.9 °C 1006.8 hPa Calm   3.2 km/h 86% 0.0 mm 0 W/m2
00:54 16.2 °C 13.9 °C 1006.8 hPa West 1.4 km/h 4.8 km/h 86% 0.0 mm 0 W/m2
00:59 16.1 °C 13.8 °C 1006.8 hPa NW 3.2 km/h 4.8 km/h 86% 0.0 mm 0 W/m2
01:04 16.1 °C 13.8 °C 1006.8 hPa Calm   3.2 km/h 86% 0.0 mm 0 W/m2
01:09 16 °C 13.5 °C 1007.1 hPa NNW 4.7 km/h 8 km/h 85% 0.0 mm 0 W/m2
01:14 15.9 °C 13.4 °C 1007.1 hPa WSW 11.1 km/h 14.5 km/h 85% 0.0 mm 0 W/m2
01:19 15.9 °C 13.2 °C 1007.1 hPa NW 1.4 km/h 8 km/h 84% 0.0 mm 0 W/m2
01:24 15.9 °C 13.2 °C 1007.1 hPa WSW 4.7 km/h 14.5 km/h 84% 0.0 mm 0 W/m2
01:29 15.9 °C 13 °C 1007.1 hPa WSW 1.4 km/h 3.2 km/h 83% 0.0 mm 0 W/m2
01:34 16 °C 13.1 °C 1007.1 hPa WNW 3.2 km/h 6.4 km/h 83% 0.0 mm 0 W/m2
01:39 16 °C 13.1 °C 1007.1 hPa Calm   6.4 km/h 83% 0.0 mm 0 W/m2
01:57 15.7 °C 12.8 °C 1007.1 hPa Calm   1.6 km/h 83% 0.0 mm 0 W/m2
02:02 15.6 °C 12.7 °C 1007.1 hPa Calm   3.2 km/h 83% 0.0 mm 0 W/m2
02:07 15.5 °C 12.8 °C 1007.5 hPa Calm   3.2 km/h 84% 0.0 mm 0 W/m2
02:12 15.4 °C 12.7 °C 1007.5 hPa Calm   3.2 km/h 84% 0.0 mm 0 W/m2
02:17 15.4 °C 12.9 °C 1007.5 hPa NE 1.4 km/h 4.8 km/h 85% 0.0 mm 0 W/m2
02:22 15.3 °C 12.8 °C 1007.5 hPa NE 3.2 km/h 3.2 km/h 85% 0.0 mm 0 W/m2
02:27 15.2 °C 12.7 °C 1007.5 hPa NW 1.4 km/h 6.4 km/h 85% 0.0 mm 0 W/m2
02:47 15.1 °C 13 °C 1007.5 hPa West 1.4 km/h 3.2 km/h 87% 0.0 mm 0 W/m2
02:52 15 °C 12.9 °C 1007.5 hPa NNE 4.7 km/h 6.4 km/h 87% 0.0 mm 0 W/m2
02:57 15 °C 12.9 °C 1007.8 hPa ENE 1.4 km/h 4.8 km/h 87% 0.0 mm 0 W/m2
03:02 15 °C 13 °C 1007.8 hPa SW 1.4 km/h 6.4 km/h 88% 0.0 mm 0 W/m2
03:07 15 °C 13 °C 1007.8 hPa NW 6.4 km/h 6.4 km/h 88% 0.0 mm 0 W/m2
03:12 15 °C 12.9 °C 1007.8 hPa Calm   4.8 km/h 87% 0.0 mm 0 W/m2
03:17 15 °C 12.9 °C 1007.8 hPa Calm   4.8 km/h 87% 0.0 mm 0 W/m2
03:22 15 °C 12.9 °C 1007.8 hPa East 1.4 km/h 6.4 km/h 87% 0.0 mm 0 W/m2
03:27 14.9 °C 12.8 °C 1007.8 hPa WNW 1.4 km/h 3.2 km/h 87% 0.0 mm 0 W/m2
03:32 14.9 °C 12.8 °C 1007.8 hPa Calm   3.2 km/h 87% 0.0 mm 0 W/m2
03:37 14.8 °C 12.8 °C 1007.8 hPa North 1.4 km/h 3.2 km/h 88% 0.0 mm 0 W/m2
03:42 14.8 °C 12.8 °C 1007.8 hPa Calm   4.8 km/h 88% 0.0 mm 0 W/m2
03:47 14.7 °C 12.7 °C 1007.8 hPa Calm   6.4 km/h 88% 0.0 mm 0 W/m2
03:52 14.7 °C 12.7 °C 1007.8 hPa West 1.4 km/h 4.8 km/h 88% 0.0 mm 0 W/m2
03:57 14.6 °C 12.6 °C 1007.8 hPa South 3.2 km/h 3.2 km/h 88% 0.0 mm 0 W/m2
04:02 14.6 °C 12.6 °C 1007.8 hPa NE 1.4 km/h 4.8 km/h 88% 0.0 mm 0 W/m2
04:07 14.5 °C 12.5 °C 1008.1 hPa NW 3.2 km/h 3.2 km/h 88% 0.0 mm 0 W/m2
04:12 14.5 °C 12.5 °C 1008.1 hPa NW 1.4 km/h 3.2 km/h 88% 0.0 mm 0 W/m2
04:17 14.5 °C 12.5 °C 1008.1 hPa WNW 1.4 km/h 3.2 km/h 88% 0.0 mm 0 W/m2
04:35 14.3 °C 12.3 °C 1008.1 hPa NW 3.2 km/h 4.8 km/h 88% 0.0 mm 0 W/m2
04:40 14.3 °C 12.3 °C 1008.5 hPa Calm   3.2 km/h 88% 0.0 mm 0 W/m2
04:45 14.3 °C 12.3 °C 1008.1 hPa NW 3.2 km/h 3.2 km/h 88% 0.0 mm 0 W/m2
04:50 14.2 °C 12.2 °C 1008.5 hPa Calm   3.2 km/h 88% 0.0 mm 0 W/m2
05:09 14 °C 12.2 °C 1008.5 hPa SSW 4.7 km/h 4.8 km/h 89% 0.0 mm 0 W/m2
05:14 13.9 °C 12.1 °C 1008.5 hPa WSW 7.9 km/h 11.3 km/h 89% 0.0 mm 0 W/m2
05:19 14 °C 12.2 °C 1008.5 hPa WNW 4.7 km/h 6.4 km/h 89% 0.0 mm 0 W/m2
05:24 14 °C 12.2 °C 1008.5 hPa NW 8 km/h 8 km/h 89% 0.0 mm 0 W/m2
05:29 14.1 °C 12.3 °C 1008.5 hPa SSW 7.9 km/h 9.7 km/h 89% 0.0 mm 0 W/m2
05:34 14.1 °C 12.3 °C 1008.5 hPa West 3.2 km/h 6.4 km/h 89% 0.0 mm 0 W/m2
05:39 14.2 °C 12.4 °C 1008.8 hPa WSW 1.4 km/h 4.8 km/h 89% 0.0 mm 0 W/m2
05:44 14.2 °C 12.4 °C 1008.8 hPa NNW 3.2 km/h 11.3 km/h 89% 0.0 mm 0 W/m2
05:49 14.2 °C 12.4 °C 1008.8 hPa East 3.2 km/h 6.4 km/h 89% 0.0 mm 0 W/m2
05:54 14.1 °C 12.3 °C 1008.8 hPa WNW 3.2 km/h 11.3 km/h 89% 0.0 mm 0 W/m2
05:59 14.1 °C 12.3 °C 1008.8 hPa NW 4.7 km/h 9.7 km/h 89% 0.0 mm 0 W/m2
06:04 14 °C 12 °C 1008.8 hPa WNW 1.4 km/h 4.8 km/h 88% 0.0 mm 0 W/m2
06:09 13.9 °C 12.1 °C 1008.8 hPa NW 3.2 km/h 11.3 km/h 89% 0.0 mm 0 W/m2
06:14 13.9 °C 12.1 °C 1008.8 hPa NNW 4.7 km/h 9.7 km/h 89% 0.0 mm 0 W/m2
06:19 13.8 °C 12 °C 1009.1 hPa WNW 11.1 km/h 16.1 km/h 89% 0.0 mm 5 W/m2
06:24 13.8 °C 12 °C 1009.1 hPa West 6.4 km/h 9.7 km/h 89% 0.0 mm 5 W/m2
06:29 13.8 °C 12 °C 1008.8 hPa West 1.4 km/h 16.1 km/h 89% 0.0 mm 7 W/m2
06:34 13.7 °C 11.9 °C 1009.1 hPa NW 3.2 km/h 9.7 km/h 89% 0.0 mm 9 W/m2
06:39 13.7 °C 11.9 °C 1009.1 hPa WNW 16.3 km/h 16.1 km/h 89% 0.0 mm 11 W/m2
06:44 13.6 °C 11.8 °C 1009.1 hPa WSW 3.2 km/h 8 km/h 89% 0.0 mm 14 W/m2
06:49 13.6 °C 11.8 °C 1009.1 hPa West 6.4 km/h 6.4 km/h 89% 0.0 mm 16 W/m2
06:54 13.6 °C 11.8 °C 1009.1 hPa WSW 1.4 km/h 12.9 km/h 89% 0.0 mm 18 W/m2
06:59 13.6 °C 11.8 °C 1009.5 hPa NW 7.9 km/h 8 km/h 89% 0.0 mm 21 W/m2
07:04 13.6 °C 11.8 °C 1009.1 hPa NW 4.7 km/h 12.9 km/h 89% 0.0 mm 21 W/m2
07:09 13.7 °C 11.9 °C 1009.5 hPa North 1.4 km/h 6.4 km/h 89% 0.0 mm 23 W/m2
07:14 13.7 °C 11.9 °C 1009.5 hPa NE 3.2 km/h 3.2 km/h 89% 0.0 mm 25 W/m2
07:19 13.7 °C 11.9 °C 1009.5 hPa NNW 6.4 km/h 6.4 km/h 89% 0.0 mm 28 W/m2
07:24 13.7 °C 11.9 °C 1009.5 hPa ENE 3.2 km/h 3.2 km/h 89% 0.0 mm 25 W/m2
07:29 13.7 °C 11.9 °C 1009.5 hPa ESE 3.2 km/h 4.8 km/h 89% 0.0 mm 33 W/m2
07:34 13.7 °C 11.9 °C 1009.5 hPa NE 4.7 km/h 4.8 km/h 89% 0.0 mm 35 W/m2
07:39 13.8 °C 12 °C 1009.8 hPa SSE 1.4 km/h 8 km/h 89% 0.0 mm 42 W/m2
07:57 14.1 °C 12.1 °C 1009.8 hPa Calm   4.8 km/h 88% 0.0 mm 42 W/m2
08:02 14.2 °C 12.1 °C 1009.8 hPa NW 4.7 km/h 12.9 km/h 87% 0.0 mm 49 W/m2
08:07 14.3 °C 12.2 °C 1009.8 hPa NNW 1.4 km/h 4.8 km/h 87% 0.0 mm 58 W/m2
08:12 14.6 °C 12.3 °C 1009.8 hPa Calm   11.3 km/h 86% 0.0 mm 70 W/m2
08:17 14.8 °C 12.5 °C 1009.8 hPa West 9.7 km/h 16.1 km/h 86% 0.0 mm 74 W/m2
08:22 14.8 °C 12.3 °C 1010.2 hPa NW 4.7 km/h 9.7 km/h 85% 0.0 mm 88 W/m2
08:27 15.1 °C 12.4 °C 1010.2 hPa NW 1.4 km/h 16.1 km/h 84% 0.0 mm 90 W/m2
08:32 15.3 °C 12.6 °C 1010.2 hPa WSW 6.4 km/h 11.3 km/h 84% 0.0 mm 91 W/m2
08:37 15.4 °C 12.7 °C 1010.2 hPa WNW 1.4 km/h 14.5 km/h 84% 0.0 mm 102 W/m2
08:42 15.6 °C 12.7 °C 1010.2 hPa NW 6.4 km/h 12.9 km/h 83% 0.0 mm 128 W/m2
08:47 15.7 °C 12.8 °C 1010.2 hPa ESE 1.4 km/h 12.9 km/h 83% 0.0 mm 234 W/m2
08:52 15.8 °C 12.7 °C 1010.5 hPa SSE 3.2 km/h 14.5 km/h 82% 0.0 mm 336 W/m2
08:57 15.9 °C 12.8 °C 1010.5 hPa NNW 9.7 km/h 20.9 km/h 82% 0.0 mm 134 W/m2
09:02 15.8 °C 12.7 °C 1010.5 hPa WSW 6.4 km/h 11.3 km/h 82% 0.0 mm 179 W/m2
09:07 15.8 °C 12.7 °C 1010.5 hPa NW 4.7 km/h 14.5 km/h 82% 0.0 mm 130 W/m2
09:12 15.8 °C 12.7 °C 1010.5 hPa WNW 7.9 km/h 9.7 km/h 82% 0.0 mm 111 W/m2
09:17 15.8 °C 12.9 °C 1010.5 hPa WNW 1.4 km/h 3.2 km/h 83% 0.0 mm 148 W/m2
09:22 15.7 °C 12.8 °C 1010.5 hPa West 1.4 km/h 3.2 km/h 83% 0.0 mm 163 W/m2
09:27 15.7 °C 12.8 °C 1010.5 hPa NE 3.2 km/h 8 km/h 83% 0.0 mm 265 W/m2
10:04 16.4 °C 13.5 °C 1010.8 hPa West 4.7 km/h 6.4 km/h 83% 0.0 mm 134 W/m2
10:09 16.3 °C 13.6 °C 1010.8 hPa East 3.2 km/h 8 km/h 84% 0.2 mm 128 W/m2
10:14 16.2 °C 13.7 °C 1010.8 hPa Calm   1.6 km/h 85% 0.2 mm 46 W/m2
10:19 16.1 °C 13.8 °C 1010.8 hPa NW 1.4 km/h 8 km/h 86% 0.5 mm 169 W/m2
10:24 16.1 °C 13.9 °C 1010.8 hPa NW 1.4 km/h 4.8 km/h 87% 0.5 mm 221 W/m2
10:29 16.2 °C 14 °C 1010.8 hPa NW 3.2 km/h 4.8 km/h 87% 0.5 mm 223 W/m2
10:34 16.3 °C 14.1 °C 1010.8 hPa NNE 3.2 km/h 4.8 km/h 87% 0.5 mm 149 W/m2
10:39 16.3 °C 14 °C 1010.8 hPa Calm   4.8 km/h 86% 0.5 mm 192 W/m2
10:44 16.4 °C 14.1 °C 1011.2 hPa ENE 1.4 km/h 3.2 km/h 86% 0.5 mm 287 W/m2
10:49 16.7 °C 14.3 °C 1011.2 hPa Calm   4.8 km/h 86% 0.5 mm 237 W/m2
10:54 16.9 °C 14.4 °C 1011.2 hPa WNW 6.4 km/h 11.3 km/h 85% 0.5 mm 281 W/m2
10:59 17.2 °C 14.7 °C 1011.2 hPa West 3.2 km/h 4.8 km/h 85% 0.5 mm 874 W/m2
11:04 17.3 °C 14.4 °C 1011.2 hPa Calm   6.4 km/h 83% 0.5 mm 795 W/m2
11:09 17.3 °C 14 °C 1011.2 hPa North 4.7 km/h 6.4 km/h 81% 0.2 mm 178 W/m2
11:14 17.1 °C 13.6 °C 1011.2 hPa WNW 6.4 km/h 14.5 km/h 80% 0.2 mm 100 W/m2
11:19 16.7 °C 13.6 °C 1011.2 hPa NNW 1.4 km/h 8 km/h 82% 0.0 mm 156 W/m2
11:24 16.6 °C 13.7 °C 1011.2 hPa WNW 1.4 km/h 14.5 km/h 83% 0.0 mm 380 W/m2
11:29 16.7 °C 14 °C 1011.2 hPa WNW 3.2 km/h 4.8 km/h 84% 0.0 mm 809 W/m2
11:34 17.1 °C 14 °C 1011.2 hPa WNW 13 km/h 14.5 km/h 82% 0.0 mm 232 W/m2
11:39 17.3 °C 13.6 °C 1011.2 hPa NW 6.4 km/h 12.9 km/h 79% 0.0 mm 236 W/m2
11:44 17.6 °C 13.9 °C 1011.5 hPa WSW 4.7 km/h 14.5 km/h 79% 0.2 mm 225 W/m2
11:49 17 °C 13.7 °C 1011.5 hPa NW 4.7 km/h 12.9 km/h 81% 1.3 mm 197 W/m2
11:54 16.5 °C 13.8 °C 1011.9 hPa Calm   6.4 km/h 84% 1.3 mm 163 W/m2
11:59 16.3 °C 13.6 °C 1011.9 hPa NW 1.4 km/h 6.4 km/h 84% 1.3 mm 169 W/m2
12:04 16.4 °C 13.9 °C 1011.9 hPa NNW 4.7 km/h 14.5 km/h 85% 1.3 mm 865 W/m2
12:09 16.6 °C 13.7 °C 1011.9 hPa NW 3.2 km/h 11.3 km/h 83% 1.3 mm 461 W/m2
12:14 16.8 °C 13.7 °C 1011.9 hPa South 4.7 km/h 9.7 km/h 82% 1.3 mm 306 W/m2
12:19 17.1 °C 14 °C 1011.9 hPa NNW 13 km/h 12.9 km/h 82% 1.3 mm 461 W/m2
12:24 17.3 °C 14 °C 1011.9 hPa NNW 3.2 km/h 8 km/h 81% 1.3 mm 1016 W/m2
12:29 17.7 °C 14.2 °C 1011.9 hPa NW 7.9 km/h 14.5 km/h 80% 1.3 mm 860 W/m2
12:34 17.9 °C 14 °C 1011.9 hPa West 6.4 km/h 17.7 km/h 78% 1.3 mm 896 W/m2
12:39 18 °C 13.7 °C 1011.5 hPa WNW 1.4 km/h 14.5 km/h 76% 1.3 mm 840 W/m2
12:44 17.9 °C 13.6 °C 1011.9 hPa SW 3.2 km/h 6.4 km/h 76% 0.8 mm 234 W/m2
12:49 17.9 °C 14 °C 1011.5 hPa NW 6.4 km/h 12.9 km/h 78% 0.0 mm 345 W/m2
12:54 17.9 °C 14 °C 1011.9 hPa NW 9.7 km/h 22.5 km/h 78% 0.0 mm 98 W/m2
12:59 17 °C 13.3 °C 1011.9 hPa WSW 4.7 km/h 17.7 km/h 79% 0.2 mm 77 W/m2
13:04 16.3 °C 13 °C 1011.9 hPa WNW 3.2 km/h 22.5 km/h 81% 0.5 mm 83 W/m2
13:09 16.1 °C 13.2 °C 1011.9 hPa NW 1.4 km/h 8 km/h 83% 0.5 mm 824 W/m2
13:14 16.3 °C 13.4 °C 1011.9 hPa SE 1.4 km/h 4.8 km/h 83% 0.5 mm 772 W/m2
13:19 16.8 °C 14.1 °C 1011.9 hPa West 4.7 km/h 8 km/h 84% 0.5 mm 940 W/m2
13:24 17.2 °C 14.1 °C 1011.9 hPa NNW 1.4 km/h 3.2 km/h 82% 0.5 mm 146 W/m2
13:29 17.4 °C 13.9 °C 1011.9 hPa WSW 6.4 km/h 12.9 km/h 80% 0.5 mm 236 W/m2
13:34 17.4 °C 13.5 °C 1011.9 hPa West 6.4 km/h 11.3 km/h 78% 0.5 mm 343 W/m2
13:40 17.4 °C 13.7 °C 1011.9 hPa WSW 3.2 km/h 8 km/h 79% 0.5 mm 316 W/m2
13:45 17.4 °C 13.7 °C 1011.9 hPa WNW 3.2 km/h 8 km/h 79% 0.5 mm 244 W/m2
13:50 17.3 °C 13.4 °C 1011.9 hPa West 4.7 km/h 11.3 km/h 78% 0.5 mm 132 W/m2
13:55 17.1 °C 13.2 °C 1012.2 hPa West 11.1 km/h 16.1 km/h 78% 0.5 mm 65 W/m2
14:00 16.4 °C 12.9 °C 1012.5 hPa West 6.4 km/h 6.4 km/h 80% 0.5 mm 146 W/m2
14:05 16.1 °C 13 °C 1012.5 hPa NW 4.7 km/h 6.4 km/h 82% 0.2 mm 279 W/m2
14:10 16.1 °C 13.4 °C 1012.5 hPa WNW 4.7 km/h 6.4 km/h 84% 0.2 mm 306 W/m2
14:15 16.2 °C 13.5 °C 1012.5 hPa West 13 km/h 16.1 km/h 84% 0.5 mm 348 W/m2
14:20 16.3 °C 13.6 °C 1012.5 hPa WNW 9.7 km/h 11.3 km/h 84% 0.5 mm 376 W/m2
14:25 16.6 °C 13.7 °C 1012.5 hPa NW 16.1 km/h 16.1 km/h 83% 0.5 mm 420 W/m2
14:30 16.9 °C 13.8 °C 1012.5 hPa WNW 11.1 km/h 12.9 km/h 82% 0.5 mm 425 W/m2
14:35 17.2 °C 14.3 °C 1012.5 hPa NW 6.4 km/h 12.9 km/h 83% 0.5 mm 902 W/m2
14:40 17.3 °C 13.8 °C 1012.5 hPa WSW 11.1 km/h 20.9 km/h 80% 0.5 mm 860 W/m2
14:45 17.5 °C 13.8 °C 1012.5 hPa WNW 14.3 km/h 17.7 km/h 79% 0.5 mm 881 W/m2
14:50 17.6 °C 13.9 °C 1012.5 hPa West 11.1 km/h 29 km/h 79% 0.5 mm 935 W/m2
14:55 17.7 °C 13.8 °C 1012.5 hPa West 13 km/h 16.1 km/h 78% 0.5 mm 230 W/m2
15:00 18 °C 13.7 °C 1012.5 hPa NW 6.4 km/h 22.5 km/h 76% 0.2 mm 230 W/m2
15:05 18.3 °C 13.2 °C 1012.5 hPa WSW 11.1 km/h 14.5 km/h 72% 0.2 mm 874 W/m2
15:10 18.5 °C 12.9 °C 1012.5 hPa WSW 13 km/h 16.1 km/h 70% 0.2 mm 837 W/m2
15:15 18.7 °C 12.9 °C 1012.5 hPa West 4.7 km/h 12.9 km/h 69% 0.0 mm 868 W/m2
15:20 19 °C 13 °C 1012.5 hPa WSW 19.5 km/h 20.9 km/h 68% 0.0 mm 879 W/m2
15:25 19.1 °C 12.8 °C 1012.5 hPa WSW 9.7 km/h 16.1 km/h 67% 0.0 mm 879 W/m2
15:30 19.1 °C 12.8 °C 1012.5 hPa NW 7.9 km/h 24.1 km/h 67% 0.0 mm 879 W/m2
15:35 19.1 °C 12.6 °C 1012.5 hPa SW 6.4 km/h 16.1 km/h 66% 0.0 mm 598 W/m2
15:40 19.3 °C 12.8 °C 1012.5 hPa NW 1.4 km/h 24.1 km/h 66% 0.0 mm 874 W/m2
15:45 19.7 °C 12.5 °C 1012.9 hPa Calm   24.1 km/h 63% 0.0 mm 793 W/m2
15:50 19.7 °C 12 °C 1012.9 hPa WSW 9.7 km/h 12.9 km/h 61% 0.0 mm 780 W/m2
15:55 19.8 °C 12.3 °C 1012.9 hPa West 4.7 km/h 14.5 km/h 62% 0.0 mm 777 W/m2
16:00 19.8 °C 11.8 °C 1012.9 hPa NW 4.7 km/h 19.3 km/h 60% 0.0 mm 800 W/m2
16:05 19.8 °C 12.1 °C 1012.9 hPa NE 3.2 km/h 12.9 km/h 61% 0.0 mm 784 W/m2
16:10 19.9 °C 11.9 °C 1012.9 hPa NW 9.7 km/h 19.3 km/h 60% 0.0 mm 742 W/m2
16:15 19.8 °C 12.1 °C 1012.9 hPa West 1.4 km/h 9.7 km/h 61% 0.0 mm 729 W/m2
16:20 19.7 °C 12 °C 1012.9 hPa NNW 9.7 km/h 24.1 km/h 61% 0.0 mm 724 W/m2
16:25 19.6 °C 12.4 °C 1012.9 hPa WNW 4.7 km/h 14.5 km/h 63% 0.0 mm 712 W/m2
16:30 19.7 °C 12.5 °C 1012.9 hPa East 3.2 km/h 24.1 km/h 63% 0.0 mm 726 W/m2
16:35 19.8 °C 12.3 °C 1012.9 hPa NE 3.2 km/h 9.7 km/h 62% 0.0 mm 765 W/m2
16:40 20 °C 12.5 °C 1013.2 hPa South 9.7 km/h 14.5 km/h 62% 0.0 mm 793 W/m2
16:45 19.8 °C 12.8 °C 1012.9 hPa WNW 13 km/h 12.9 km/h 64% 0.0 mm 120 W/m2
16:50 19.7 °C 12.7 °C 1013.2 hPa North 1.4 km/h 11.3 km/h 64% 0.0 mm 735 W/m2
16:55 19.6 °C 11.9 °C 1013.2 hPa SSE 3.2 km/h 16.1 km/h 61% 0.0 mm 137 W/m2
17:00 19.4 °C 12.2 °C 1013.2 hPa WNW 4.7 km/h 9.7 km/h 63% 0.0 mm 141 W/m2
17:05 19.4 °C 11.9 °C 1013.2 hPa WNW 1.4 km/h 12.9 km/h 62% 0.0 mm 211 W/m2
17:10 19.4 °C 11.9 °C 1013.2 hPa WNW 3.2 km/h 14.5 km/h 62% 0.0 mm 652 W/m2
17:15 19.7 °C 12 °C 1013.2 hPa North 4.7 km/h 14.5 km/h 61% 0.0 mm 664 W/m2
17:20 19.9 °C 12.2 °C 1013.2 hPa North 6.4 km/h 14.5 km/h 61% 0.0 mm 598 W/m2
17:25 20.2 °C 12.9 °C 1013.2 hPa WSW 6.4 km/h 11.3 km/h 63% 0.0 mm 594 W/m2
17:30 20.3 °C 12.3 °C 1013.2 hPa NW 6.4 km/h 11.3 km/h 60% 0.0 mm 615 W/m2
17:35 20.3 °C 12 °C 1013.2 hPa NNE 4.7 km/h 8 km/h 59% 0.0 mm 615 W/m2
17:40 20.6 °C 12.6 °C 1013.2 hPa NNW 1.4 km/h 4.8 km/h 60% 0.0 mm 594 W/m2
17:45 20.7 °C 12.4 °C 1013.2 hPa NW 3.2 km/h 17.7 km/h 59% 0.0 mm 566 W/m2
17:50 20.4 °C 11.3 °C 1013.2 hPa NW 3.2 km/h 14.5 km/h 56% 0.0 mm 547 W/m2
17:55 20.3 °C 11.5 °C 1013.2 hPa SW 4.7 km/h 9.7 km/h 57% 0.0 mm 443 W/m2
18:00 20.2 °C 11.9 °C 1013.5 hPa NW 3.2 km/h 12.9 km/h 59% 0.0 mm 220 W/m2
18:05 19.9 °C 11.6 °C 1013.5 hPa NW 4.7 km/h 19.3 km/h 59% 0.0 mm 527 W/m2
18:10 20 °C 12 °C 1013.5 hPa NNW 1.4 km/h 6.4 km/h 60% 0.0 mm 417 W/m2
18:15 20.1 °C 12.1 °C 1013.5 hPa NNW 3.2 km/h 19.3 km/h 60% 0.0 mm 276 W/m2
18:20 19.9 °C 11.9 °C 1013.5 hPa WNW 1.4 km/h 8 km/h 60% 0.0 mm 141 W/m2
18:25 19.6 °C 11.4 °C 1013.9 hPa NW 3.2 km/h 12.9 km/h 59% 0.0 mm 209 W/m2
18:30 19.3 °C 11.3 °C 1013.9 hPa WSW 4.7 km/h 11.3 km/h 60% 0.0 mm 199 W/m2
18:35 19.1 °C 11.2 °C 1013.9 hPa WSW 6.4 km/h 11.3 km/h 60% 0.0 mm 158 W/m2
18:40 19 °C 11.3 °C 1013.9 hPa SW 3.2 km/h 16.1 km/h 61% 0.0 mm 243 W/m2
18:45 18.9 °C 11.5 °C 1013.9 hPa North 4.7 km/h 6.4 km/h 62% 0.0 mm 158 W/m2
18:50 18.9 °C 11.5 °C 1013.9 hPa WNW 13 km/h 19.3 km/h 62% 0.0 mm 118 W/m2
18:55 18.7 °C 11.5 °C 1013.9 hPa WNW 4.7 km/h 16.1 km/h 63% 0.0 mm 104 W/m2
19:00 18.6 °C 11.9 °C 1013.9 hPa West 9.7 km/h 12.9 km/h 65% 0.0 mm 125 W/m2
19:05 18.6 °C 12.1 °C 1014.2 hPa WNW 6.4 km/h 8 km/h 66% 0.0 mm 169 W/m2
19:10 18.8 °C 12.3 °C 1014.2 hPa NNW 4.7 km/h 6.4 km/h 66% 0.0 mm 339 W/m2
19:15 19.2 °C 12.7 °C 1014.2 hPa WNW 7.9 km/h 11.3 km/h 66% 0.0 mm 283 W/m2
19:21 19.4 °C 12.7 °C 1014.2 hPa Calm   6.4 km/h 65% 0.0 mm 239 W/m2
19:26 19.6 °C 12.4 °C 1014.2 hPa WNW 4.7 km/h 8 km/h 63% 0.0 mm 207 W/m2
19:31 19.6 °C 12.4 °C 1014.2 hPa NNW 6.4 km/h 6.4 km/h 63% 0.0 mm 158 W/m2
19:36 19.3 °C 11.8 °C 1014.2 hPa WNW 3.2 km/h 8 km/h 62% 0.0 mm 149 W/m2
19:41 19.2 °C 12.2 °C 1014.2 hPa NW 3.2 km/h 9.7 km/h 64% 0.0 mm 153 W/m2
19:46 19.1 °C 12.1 °C 1014.2 hPa Calm   6.4 km/h 64% 0.0 mm 153 W/m2
19:51 19.1 °C 12.4 °C 1014.2 hPa Calm   4.8 km/h 65% 0.0 mm 148 W/m2
19:56 19.1 °C 12.4 °C 1014.2 hPa NNW 3.2 km/h 8 km/h 65% 0.0 mm 135 W/m2
20:01 19.1 °C 12.4 °C 1014.2 hPa NW 1.4 km/h 1.6 km/h 65% 0.0 mm 121 W/m2
20:06 19.2 °C 12.5 °C 1014.2 hPa NW 1.4 km/h 8 km/h 65% 0.0 mm 97 W/m2
20:11 19.2 °C 12.5 °C 1014.2 hPa Calm   1.6 km/h 65% 0.0 mm 74 W/m2
20:16 19.2 °C 12.7 °C 1014.2 hPa Calm   3.2 km/h 66% 0.0 mm 58 W/m2
20:21 19 °C 12.5 °C 1014.6 hPa SSW 1.4 km/h 3.2 km/h 66% 0.0 mm 21 W/m2
20:26 18.5 °C 12.3 °C 1014.6 hPa WNW 1.4 km/h 3.2 km/h 67% 0.0 mm 23 W/m2
20:31 18.3 °C 12.5 °C 1014.6 hPa Calm   1.6 km/h 69% 0.0 mm 21 W/m2
20:36 18 °C 12.4 °C 1014.6 hPa Calm   1.6 km/h 70% 0.0 mm 19 W/m2
20:41 17.7 °C 12.4 °C 1014.6 hPa ESE 1.4 km/h 4.8 km/h 71% 0.0 mm 18 W/m2
20:46 17.4 °C 12.3 °C 1014.6 hPa Calm   1.6 km/h 72% 0.0 mm 12 W/m2
20:51 17.2 °C 12.5 °C 1014.6 hPa NE 1.4 km/h 3.2 km/h 74% 0.0 mm 11 W/m2
20:56 16.9 °C 12.2 °C 1014.6 hPa NW 1.4 km/h 4.8 km/h 74% 0.0 mm 9 W/m2
21:01 16.8 °C 12.5 °C 1014.6 hPa NW 1.4 km/h 1.6 km/h 76% 0.0 mm 5 W/m2
21:06 16.6 °C 12.4 °C 1014.9 hPa SW 3.2 km/h 4.8 km/h 76% 0.0 mm 0 W/m2
21:11 16.3 °C 12.3 °C 1014.9 hPa North 1.4 km/h 4.8 km/h 77% 0.0 mm 0 W/m2
21:16 16.4 °C 12.4 °C 1014.9 hPa WNW 1.4 km/h 3.2 km/h 77% 0.0 mm 0 W/m2
21:21 16.3 °C 12.3 °C 1014.9 hPa Calm   1.6 km/h 77% 0.0 mm 0 W/m2
21:26 16.1 °C 12.1 °C 1014.9 hPa NE 1.4 km/h 3.2 km/h 77% 0.0 mm 0 W/m2
21:31 15.9 °C 12.3 °C 1014.9 hPa NE 1.4 km/h 3.2 km/h 79% 0.0 mm 0 W/m2
21:36 15.6 °C 12.2 °C 1014.9 hPa Calm   3.2 km/h 80% 0.0 mm 0 W/m2
21:41 15.3 °C 12.1 °C 1014.9 hPa Calm   3.2 km/h 81% 0.0 mm 0 W/m2
21:46 15.1 °C 12 °C 1015.2 hPa Calm     82% 0.0 mm 0 W/m2
21:51 14.9 °C 11.9 °C 1015.2 hPa NNW 1.4 km/h 3.2 km/h 82% 0.0 mm 0 W/m2
21:56 14.8 °C 11.9 °C 1015.2 hPa Calm   3.2 km/h 83% 0.0 mm 0 W/m2
22:01 14.7 °C 11.8 °C 1015.2 hPa Calm     83% 0.0 mm 0 W/m2
22:06 14.6 °C 11.7 °C 1015.2 hPa Calm     83% 0.0 mm 0 W/m2
22:11 14.5 °C 11.8 °C 1015.2 hPa Calm     84% 0.0 mm 0 W/m2
22:16 14.4 °C 11.9 °C 1015.2 hPa NNW 1.4 km/h 1.6 km/h 85% 0.0 mm 0 W/m2
22:21 14.4 °C 11.9 °C 1015.6 hPa Calm   1.6 km/h 85% 0.0 mm 0 W/m2
22:26 14.3 °C 11.8 °C 1015.6 hPa Calm   1.6 km/h 85% 0.0 mm 0 W/m2
22:31 14.3 °C 11.8 °C 1015.6 hPa Calm   1.6 km/h 85% 0.0 mm 0 W/m2
22:36 14.2 °C 11.9 °C 1015.6 hPa NE 1.4 km/h 1.6 km/h 86% 0.0 mm 0 W/m2
22:41 14.1 °C 11.8 °C 1015.6 hPa Calm   1.6 km/h 86% 0.0 mm 0 W/m2
22:46 14 °C 11.9 °C 1015.6 hPa Calm   3.2 km/h 87% 0.0 mm 0 W/m2
22:51 13.9 °C 11.8 °C 1015.6 hPa Calm   3.2 km/h 87% 0.0 mm 0 W/m2
22:56 13.9 °C 11.9 °C 1015.6 hPa Calm   1.6 km/h 88% 0.0 mm 0 W/m2
23:01 13.8 °C 11.8 °C 1015.6 hPa Calm   3.2 km/h 88% 0.0 mm 0 W/m2
23:06 13.8 °C 11.8 °C 1015.6 hPa Calm     88% 0.0 mm 0 W/m2
23:11 13.7 °C 11.9 °C 1015.6 hPa North 1.4 km/h 3.2 km/h 89% 0.0 mm 0 W/m2
23:16 13.7 °C 11.9 °C 1015.6 hPa Calm     89% 0.0 mm 0 W/m2
23:21 13.7 °C 11.9 °C 1015.6 hPa Calm   3.2 km/h 89% 0.0 mm 0 W/m2
23:26 13.7 °C 11.9 °C 1015.6 hPa Calm     89% 0.0 mm 0 W/m2
23:31 13.7 °C 11.9 °C 1015.9 hPa Calm     89% 0.0 mm 0 W/m2
23:36 13.6 °C 11.8 °C 1015.9 hPa Calm     89% 0.0 mm 0 W/m2
23:41 13.6 °C 11.8 °C 1015.9 hPa North 1.4 km/h 3.2 km/h 89% 0.0 mm 0 W/m2
23:46 13.6 °C 12 °C 1015.9 hPa Calm   1.6 km/h 90% 0.0 mm 0 W/m2
23:51 13.7 °C 11.9 °C 1015.6 hPa Calm     89% 0.0 mm 0 W/m2
23:56 13.8 °C 12 °C 1015.6 hPa Calm     89% 0.0 mm 0 W/m2
Juneau County Weather
Compliments of Weather Underground - 4 mb